createdAt,value
2018-08-08T00:00:07.953Z,52.80
2018-08-08T00:02:36.913Z,52.70
2018-08-08T00:05:05.592Z,52.40
2018-08-08T00:07:34.028Z,51.80
2018-08-08T00:10:02.551Z,52.40
2018-08-08T00:12:31.002Z,52.30
2018-08-08T00:14:59.781Z,52.10
2018-08-08T00:17:28.278Z,52.30
2018-08-08T00:19:56.709Z,52.50
2018-08-08T00:22:25.249Z,52.20
2018-08-08T00:24:53.752Z,52.10
2018-08-08T00:27:22.245Z,52.20
2018-08-08T00:29:50.678Z,52.20
2018-08-08T00:32:19.105Z,52.20
2018-08-08T00:34:52.294Z,52.10
2018-08-08T00:37:20.741Z,52.70
2018-08-08T00:39:49.203Z,52.20
2018-08-08T00:42:17.677Z,52.30
2018-08-08T00:44:46.106Z,52.40
2018-08-08T00:47:14.613Z,52.60
2018-08-08T00:49:43.081Z,52.00
2018-08-08T00:52:11.553Z,52.60
2018-08-08T00:54:40.017Z,53.20
2018-08-08T00:57:08.469Z,52.80
2018-08-08T00:59:36.995Z,52.70
2018-08-08T01:02:05.648Z,53.00
2018-08-08T01:04:34.411Z,53.70
2018-08-08T01:07:03.029Z,52.90
2018-08-08T01:09:31.840Z,53.40
2018-08-08T01:12:00.438Z,53.50
2018-08-08T01:14:28.978Z,53.80
2018-08-08T01:16:57.473Z,53.90
2018-08-08T01:19:25.969Z,53.80
2018-08-08T01:21:54.514Z,53.40
2018-08-08T01:24:22.957Z,53.60
2018-08-08T01:26:51.516Z,53.40
2018-08-08T01:29:20.790Z,53.80
2018-08-08T01:31:49.682Z,53.70
2018-08-08T01:34:18.212Z,54.20
2018-08-08T01:36:46.664Z,54.40
2018-08-08T01:39:15.130Z,54.60
2018-08-08T01:41:43.557Z,54.80
2018-08-08T01:44:12.022Z,54.90
2018-08-08T01:46:40.602Z,54.80
2018-08-08T01:49:09.153Z,54.60
2018-08-08T01:51:37.622Z,55.20
2018-08-08T01:54:06.940Z,55.40
2018-08-08T01:56:35.404Z,55.40
2018-08-08T01:59:03.881Z,55.40
2018-08-08T02:01:32.333Z,55.50
2018-08-08T02:04:01.477Z,55.60
2018-08-08T02:06:29.892Z,55.70
2018-08-08T02:08:58.417Z,55.70
2018-08-08T02:11:26.855Z,55.90
2018-08-08T02:13:55.329Z,55.50
2018-08-08T02:16:24.029Z,56.10
2018-08-08T02:18:52.481Z,55.70
2018-08-08T02:21:20.940Z,55.90
2018-08-08T02:23:53.073Z,56.10
2018-08-08T02:26:21.513Z,56.40
2018-08-08T02:28:50.248Z,56.20
2018-08-08T02:31:19.102Z,56.30
2018-08-08T02:33:47.907Z,56.60
2018-08-08T02:36:16.374Z,56.80
2018-08-08T02:38:44.928Z,56.60
2018-08-08T02:41:14.126Z,56.80
2018-08-08T02:43:42.605Z,57.10
2018-08-08T02:46:11.073Z,57.60
2018-08-08T02:48:39.563Z,57.80
2018-08-08T02:51:12.124Z,58.10
2018-08-08T02:53:40.553Z,58.20
2018-08-08T02:56:09.364Z,58.50
2018-08-08T02:58:37.817Z,58.40
2018-08-08T03:01:06.497Z,58.40
2018-08-08T03:03:34.926Z,58.20
2018-08-08T03:06:03.447Z,58.30
2018-08-08T03:08:32.005Z,58.50
2018-08-08T03:11:01.257Z,58.30
2018-08-08T03:13:36.396Z,58.30
2018-08-08T03:16:04.852Z,58.80
2018-08-08T03:18:33.303Z,58.30
2018-08-08T03:21:01.808Z,58.40
2018-08-08T03:23:30.487Z,58.50
2018-08-08T03:25:59.338Z,58.70
2018-08-08T03:28:27.755Z,58.70
2018-08-08T03:30:56.508Z,58.70
2018-08-08T03:33:25.110Z,58.80
2018-08-08T03:35:53.553Z,59.10
2018-08-08T03:38:22.043Z,59.40
2018-08-08T03:40:50.471Z,59.30
2018-08-08T03:43:18.918Z,59.10
2018-08-08T03:45:47.989Z,59.30
2018-08-08T03:48:16.941Z,59.60
2018-08-08T03:50:45.480Z,59.70
2018-08-08T03:53:14.013Z,59.50
2018-08-08T03:55:42.424Z,59.90
2018-08-08T03:58:10.893Z,60.00
2018-08-08T04:00:39.334Z,60.30
2018-08-08T04:03:07.796Z,60.20
2018-08-08T04:05:36.275Z,60.00
2018-08-08T04:08:04.776Z,60.30
2018-08-08T04:10:33.236Z,60.00
2018-08-08T04:13:01.667Z,60.30
2018-08-08T04:15:30.113Z,60.60
2018-08-08T04:17:58.639Z,60.70
2018-08-08T04:20:27.125Z,60.70
2018-08-08T04:22:55.670Z,60.90
2018-08-08T04:25:24.220Z,61.20
2018-08-08T04:27:52.680Z,61.20
2018-08-08T04:30:21.897Z,61.00
2018-08-08T04:32:50.353Z,60.30
2018-08-08T04:35:18.864Z,60.30
2018-08-08T04:37:47.322Z,60.00
2018-08-08T04:40:18.383Z,59.80
2018-08-08T04:42:47.681Z,60.00
2018-08-08T04:45:16.800Z,60.00
2018-08-08T04:47:46.936Z,59.90
2018-08-08T04:50:15.569Z,59.80
2018-08-08T04:52:44.785Z,59.50
2018-08-08T04:55:14.614Z,59.30
2018-08-08T04:57:43.860Z,59.40
2018-08-08T05:00:14.356Z,59.20
2018-08-08T05:02:42.893Z,59.20
2018-08-08T05:05:11.488Z,60.10
2018-08-08T05:07:40.009Z,59.20
2018-08-08T05:10:10.617Z,58.90
2018-08-08T05:12:39.999Z,58.90
2018-08-08T05:15:10.483Z,58.90
2018-08-08T05:17:39.033Z,58.10
2018-08-08T05:20:08.419Z,58.90
2018-08-08T05:22:36.891Z,58.10
2018-08-08T05:25:05.597Z,57.90
2018-08-08T05:27:34.169Z,57.60
2018-08-08T05:30:02.693Z,57.70
2018-08-08T05:32:31.169Z,57.80
2018-08-08T05:35:00.466Z,58.10
2018-08-08T05:37:28.928Z,58.00
2018-08-08T05:39:57.513Z,58.10
2018-08-08T05:42:26.605Z,58.50
2018-08-08T05:44:55.119Z,58.70
2018-08-08T05:47:23.646Z,58.40
2018-08-08T05:49:52.100Z,58.40
2018-08-08T05:52:20.560Z,58.50
2018-08-08T05:54:49.144Z,59.30
2018-08-08T05:57:17.625Z,59.00
2018-08-08T05:59:46.103Z,59.30
2018-08-08T06:02:14.536Z,59.20
2018-08-08T06:04:49.478Z,59.40
2018-08-08T06:07:18.073Z,59.50
2018-08-08T06:09:46.565Z,59.40
2018-08-08T06:12:15.025Z,59.90
2018-08-08T06:14:43.657Z,60.40
2018-08-08T06:17:12.120Z,59.70
2018-08-08T06:19:40.563Z,59.60
2018-08-08T06:22:09.121Z,60.40
2018-08-08T06:24:37.792Z,61.00
2018-08-08T06:27:06.775Z,60.60
2018-08-08T06:29:35.250Z,61.10
2018-08-08T06:32:03.770Z,61.20
2018-08-08T06:34:32.281Z,60.80
2018-08-08T06:37:00.801Z,61.80
2018-08-08T06:39:29.373Z,61.70
2018-08-08T06:41:57.824Z,61.80
2018-08-08T06:44:26.753Z,61.80
2018-08-08T06:46:55.244Z,61.90
2018-08-08T06:49:23.721Z,61.60
2018-08-08T06:51:52.151Z,62.00
2018-08-08T06:54:20.610Z,62.00
2018-08-08T06:56:49.060Z,62.70
2018-08-08T06:59:17.491Z,63.20
2018-08-08T07:01:45.975Z,63.50
2018-08-08T07:04:14.540Z,63.30
2018-08-08T07:06:43.010Z,63.20
2018-08-08T07:09:12.569Z,63.60
2018-08-08T07:11:47.820Z,62.80
2018-08-08T07:14:16.318Z,62.90
2018-08-08T07:16:44.800Z,63.00
2018-08-08T07:19:13.317Z,63.30
2018-08-08T07:21:41.832Z,62.50
2018-08-08T07:24:11.126Z,62.00
2018-08-08T07:26:39.616Z,61.30
2018-08-08T07:29:08.914Z,60.90
2018-08-08T07:31:37.391Z,61.90
2018-08-08T07:34:05.920Z,60.80
2018-08-08T07:36:34.457Z,62.20
2018-08-08T07:39:02.979Z,62.30
2018-08-08T07:41:31.486Z,62.30
2018-08-08T07:43:59.936Z,62.00
2018-08-08T07:46:28.407Z,62.10
2018-08-08T07:48:56.892Z,62.10
2018-08-08T07:51:25.957Z,62.10
2018-08-08T07:53:54.434Z,62.00
2018-08-08T07:56:22.958Z,62.00
2018-08-08T07:58:51.433Z,59.90
2018-08-08T08:01:19.920Z,59.40
2018-08-08T08:03:49.089Z,60.00
2018-08-08T08:06:17.602Z,58.30
2018-08-08T08:08:46.017Z,58.20
2018-08-08T08:11:14.804Z,57.90
2018-08-08T08:13:43.668Z,55.70
2018-08-08T08:16:12.213Z,56.10
2018-08-08T08:18:40.659Z,54.80
2018-08-08T08:21:09.182Z,53.10
2018-08-08T08:23:37.616Z,54.10
2018-08-08T08:26:06.845Z,53.60
2018-08-08T08:28:35.317Z,52.10
2018-08-08T08:31:03.897Z,52.10
2018-08-08T08:33:32.389Z,51.70
2018-08-08T08:36:01.296Z,50.90
2018-08-08T08:38:29.748Z,51.20
2018-08-08T08:40:58.639Z,50.10
2018-08-08T08:43:27.169Z,50.60
2018-08-08T08:45:55.609Z,51.60
2018-08-08T08:48:24.079Z,51.50
2018-08-08T08:50:53.233Z,51.70
2018-08-08T08:53:21.685Z,51.80
2018-08-08T08:55:50.512Z,51.80
2018-08-08T08:58:19.110Z,52.00
2018-08-08T09:00:47.672Z,52.70
2018-08-08T09:03:16.141Z,51.70
2018-08-08T09:05:44.568Z,52.10
2018-08-08T09:08:13.025Z,50.00
2018-08-08T09:10:41.657Z,50.10
2018-08-08T09:13:10.221Z,49.60
2018-08-08T09:15:38.675Z,48.50
2018-08-08T09:18:07.391Z,49.60
2018-08-08T09:20:35.906Z,49.30
2018-08-08T09:23:04.412Z,48.50
2018-08-08T09:25:33.637Z,48.00
2018-08-08T09:28:02.116Z,46.90
2018-08-08T09:30:30.632Z,46.90
2018-08-08T09:33:04.361Z,45.60
2018-08-08T09:35:32.800Z,47.40
2018-08-08T09:38:01.362Z,45.70
2018-08-08T09:40:29.727Z,46.30
2018-08-08T09:43:04.612Z,45.80
2018-08-08T09:45:37.092Z,46.20
2018-08-08T09:48:05.992Z,47.10
2018-08-08T09:50:34.424Z,46.60
2018-08-08T09:53:03.238Z,45.60
2018-08-08T09:55:31.827Z,46.80
2018-08-08T09:58:00.952Z,46.30
2018-08-08T10:00:35.253Z,46.00
2018-08-08T10:03:10.310Z,45.30
2018-08-08T10:05:39.612Z,46.20
2018-08-08T10:08:08.148Z,46.70
2018-08-08T10:10:37.146Z,45.70
2018-08-08T10:13:05.648Z,45.70
2018-08-08T10:15:34.066Z,44.90
2018-08-08T10:18:02.517Z,44.60
2018-08-08T10:20:30.994Z,44.70
2018-08-08T10:22:59.486Z,45.30
2018-08-08T10:25:28.145Z,46.70
2018-08-08T10:27:56.755Z,45.90
2018-08-08T10:30:25.637Z,47.50
2018-08-08T10:32:54.142Z,46.70
2018-08-08T10:35:23.145Z,46.20
2018-08-08T10:37:51.717Z,46.00
2018-08-08T10:40:20.150Z,47.30
2018-08-08T10:42:48.661Z,48.40
2018-08-08T10:45:17.153Z,48.00
2018-08-08T10:47:45.635Z,46.80
2018-08-08T10:50:14.381Z,45.90
2018-08-08T10:52:43.138Z,46.40
2018-08-08T10:55:12.489Z,44.80
2018-08-08T10:57:41.141Z,46.70
2018-08-08T11:00:10.954Z,45.70
2018-08-08T11:02:40.637Z,44.40
2018-08-08T11:05:09.104Z,43.90
2018-08-08T11:07:37.614Z,44.90
2018-08-08T11:10:06.307Z,45.10
2018-08-08T11:12:35.548Z,46.40
2018-08-08T11:15:04.632Z,47.20
2018-08-08T11:17:33.109Z,47.80
2018-08-08T11:20:01.666Z,48.00
2018-08-08T11:22:30.139Z,44.70
2018-08-08T11:24:59.599Z,46.20
2018-08-08T11:27:28.111Z,46.50
2018-08-08T11:29:56.716Z,47.70
2018-08-08T11:32:25.181Z,48.50
2018-08-08T11:34:57.565Z,48.30
2018-08-08T11:37:30.989Z,48.40
2018-08-08T11:39:59.474Z,48.00
2018-08-08T11:42:28.535Z,47.50
2018-08-08T11:44:57.010Z,47.40
2018-08-08T11:47:26.310Z,46.30
2018-08-08T11:49:55.456Z,47.80
2018-08-08T11:52:23.920Z,47.10
2018-08-08T11:54:52.723Z,46.50
2018-08-08T11:57:21.193Z,47.30
2018-08-08T11:59:49.653Z,47.60
2018-08-08T12:02:18.224Z,47.20
2018-08-08T12:04:46.676Z,48.10
2018-08-08T12:07:19.214Z,48.90
2018-08-08T12:09:49.688Z,48.10
2018-08-08T12:12:18.204Z,49.80
2018-08-08T12:14:46.693Z,49.00
2018-08-08T12:17:15.120Z,49.50
2018-08-08T12:19:43.580Z,49.50
2018-08-08T12:22:12.092Z,49.80
2018-08-08T12:24:40.849Z,50.20
2018-08-08T12:27:09.327Z,50.30
2018-08-08T12:29:37.832Z,50.30
2018-08-08T12:32:06.556Z,49.40
2018-08-08T12:34:35.140Z,48.80
2018-08-08T12:37:03.619Z,48.80
2018-08-08T12:39:32.554Z,48.40
2018-08-08T12:42:01.074Z,48.60
2018-08-08T12:44:30.234Z,49.80
2018-08-08T12:46:59.688Z,48.80
2018-08-08T12:49:28.165Z,49.50
2018-08-08T12:51:57.589Z,50.00
2018-08-08T12:54:26.119Z,49.40
2018-08-08T12:56:54.599Z,49.90
2018-08-08T12:59:23.062Z,50.80
2018-08-08T13:01:51.897Z,50.10
2018-08-08T13:04:21.229Z,50.70
2018-08-08T13:06:49.664Z,49.60
2018-08-08T13:09:18.965Z,50.10
2018-08-08T13:11:47.649Z,52.00
2018-08-08T13:14:16.760Z,51.20
2018-08-08T13:16:45.335Z,51.00
2018-08-08T13:19:14.436Z,51.50
2018-08-08T13:21:42.914Z,52.20
2018-08-08T13:24:11.422Z,51.60
2018-08-08T13:26:39.854Z,53.00
2018-08-08T13:29:08.818Z,53.60
2018-08-08T13:31:37.229Z,53.00
2018-08-08T13:34:05.917Z,53.40
2018-08-08T13:36:34.424Z,54.10
2018-08-08T13:39:03.259Z,53.70
2018-08-08T13:41:32.009Z,53.20
2018-08-08T13:44:00.466Z,53.20
2018-08-08T13:46:29.039Z,53.20
2018-08-08T13:48:57.465Z,52.70
2018-08-08T13:51:26.053Z,52.70
2018-08-08T13:53:54.673Z,53.20
2018-08-08T13:56:23.270Z,53.90
2018-08-08T13:58:51.734Z,51.90
2018-08-08T14:01:20.212Z,50.00
2018-08-08T14:03:49.397Z,50.10
2018-08-08T14:06:17.828Z,49.80
2018-08-08T14:08:46.344Z,49.80
2018-08-08T14:11:14.793Z,49.50
2018-08-08T14:13:43.225Z,49.50
2018-08-08T14:16:11.746Z,49.90
2018-08-08T14:18:40.205Z,49.10
2018-08-08T14:21:09.434Z,49.50
2018-08-08T14:23:37.891Z,49.70
2018-08-08T14:26:06.853Z,48.00
2018-08-08T14:28:35.284Z,46.90
2018-08-08T14:31:03.805Z,46.30
2018-08-08T14:33:32.641Z,47.30
2018-08-08T14:36:02.476Z,48.10
2018-08-08T14:38:30.904Z,49.20
2018-08-08T14:40:59.381Z,49.30
2018-08-08T14:43:27.889Z,49.30
2018-08-08T14:45:57.167Z,48.90
2018-08-08T14:48:25.780Z,46.80
2018-08-08T14:50:55.207Z,47.00
2018-08-08T14:53:23.620Z,47.70
2018-08-08T14:55:52.415Z,48.30
2018-08-08T14:58:20.885Z,48.50
2018-08-08T15:00:49.473Z,47.60
2018-08-08T15:03:18.042Z,47.30
2018-08-08T15:05:46.486Z,48.30
2018-08-08T15:08:15.461Z,47.70
2018-08-08T15:10:43.936Z,47.70
2018-08-08T15:13:12.383Z,48.30
2018-08-08T15:15:40.861Z,49.10
2018-08-08T15:18:09.416Z,48.70
2018-08-08T15:20:37.912Z,48.30
2018-08-08T15:23:06.654Z,48.70
2018-08-08T15:25:35.788Z,47.80
2018-08-08T15:28:04.317Z,48.30
2018-08-08T15:30:37.266Z,49.90
2018-08-08T15:33:06.519Z,48.80
2018-08-08T15:35:35.768Z,48.90
2018-08-08T15:38:05.162Z,48.80
2018-08-08T15:40:33.625Z,49.50
2018-08-08T15:43:02.239Z,48.80
2018-08-08T15:45:30.756Z,49.70
2018-08-08T15:47:59.300Z,49.60
2018-08-08T15:50:27.839Z,50.20
2018-08-08T15:52:56.470Z,51.40
2018-08-08T15:55:25.019Z,51.90
2018-08-08T15:57:54.149Z,51.90
2018-08-08T16:00:23.353Z,52.50
2018-08-08T16:02:52.052Z,51.50
2018-08-08T16:05:21.153Z,51.40
2018-08-08T16:07:49.734Z,51.70
2018-08-08T16:10:22.384Z,52.20
2018-08-08T16:12:50.934Z,52.30
2018-08-08T16:15:19.401Z,52.50
2018-08-08T16:17:47.906Z,52.30
2018-08-08T16:20:16.422Z,52.30
2018-08-08T16:22:46.278Z,52.90
2018-08-08T16:25:14.756Z,52.20
2018-08-08T16:27:43.223Z,52.80
2018-08-08T16:30:12.249Z,53.00
2018-08-08T16:32:47.137Z,53.10
2018-08-08T16:35:15.608Z,53.70
2018-08-08T16:37:44.352Z,53.80
2018-08-08T16:40:12.841Z,53.60
2018-08-08T16:42:41.325Z,53.50
2018-08-08T16:45:10.628Z,53.30
2018-08-08T16:47:39.416Z,53.70
2018-08-08T16:50:08.901Z,54.30
2018-08-08T16:52:37.835Z,53.80
2018-08-08T16:55:07.197Z,54.80
2018-08-08T16:57:35.669Z,53.70
2018-08-08T17:00:06.315Z,54.50
2018-08-08T17:02:34.819Z,54.40
2018-08-08T17:05:03.460Z,53.90
2018-08-08T17:07:31.944Z,54.30
2018-08-08T17:10:00.412Z,54.50
2018-08-08T17:12:28.975Z,54.50
2018-08-08T17:14:58.159Z,54.60
2018-08-08T17:17:27.300Z,54.90
2018-08-08T17:19:55.753Z,54.50
2018-08-08T17:22:24.234Z,54.90
2018-08-08T17:24:52.641Z,55.40
2018-08-08T17:27:21.519Z,56.30
2018-08-08T17:29:50.016Z,55.90
2018-08-08T17:32:18.473Z,56.20
2018-08-08T17:34:47.542Z,56.30
2018-08-08T17:37:16.045Z,56.50
2018-08-08T17:39:45.010Z,56.70
2018-08-08T17:42:13.562Z,56.70
2018-08-08T17:44:42.644Z,56.20
2018-08-08T17:47:11.809Z,56.30
2018-08-08T17:49:40.245Z,56.70
2018-08-08T17:52:08.924Z,56.70
2018-08-08T17:54:37.418Z,56.80
2018-08-08T17:57:06.239Z,56.80
2018-08-08T17:59:34.945Z,57.60
2018-08-08T18:02:03.443Z,58.30
2018-08-08T18:04:31.918Z,58.50
2018-08-08T18:07:00.475Z,58.70
2018-08-08T18:09:28.953Z,58.50
2018-08-08T18:11:57.606Z,58.60
2018-08-08T18:14:26.265Z,59.10
2018-08-08T18:16:55.429Z,59.30
2018-08-08T18:19:23.885Z,59.60
2018-08-08T18:21:53.137Z,59.70
2018-08-08T18:24:21.636Z,59.80
2018-08-08T18:26:50.138Z,60.40
2018-08-08T18:29:18.642Z,60.00
2018-08-08T18:31:48.061Z,60.00
2018-08-08T18:34:16.540Z,59.90
2018-08-08T18:36:45.178Z,60.20
2018-08-08T18:39:13.601Z,60.30
2018-08-08T18:41:42.117Z,60.30
2018-08-08T18:44:12.217Z,60.30
2018-08-08T18:46:40.926Z,60.30
2018-08-08T18:49:10.355Z,60.80
2018-08-08T18:51:39.472Z,61.00
2018-08-08T18:54:08.310Z,61.00
2018-08-08T18:56:37.634Z,61.00
2018-08-08T18:59:06.213Z,61.30
2018-08-08T19:01:34.704Z,60.90
2018-08-08T19:04:03.937Z,61.00
2018-08-08T19:06:33.386Z,61.20
2018-08-08T19:09:02.231Z,61.60
2018-08-08T19:11:30.829Z,62.00
2018-08-08T19:13:59.337Z,62.30
2018-08-08T19:16:27.809Z,62.70
2018-08-08T19:18:56.273Z,62.70
2018-08-08T19:21:24.761Z,62.50
2018-08-08T19:23:53.273Z,63.20
2018-08-08T19:26:22.619Z,63.30
2018-08-08T19:28:51.913Z,63.50
2018-08-08T19:31:20.989Z,64.10
2018-08-08T19:33:49.562Z,64.10
2018-08-08T19:36:18.058Z,63.70
2018-08-08T19:38:46.565Z,63.90
2018-08-08T19:41:15.374Z,63.80
2018-08-08T19:43:43.988Z,63.40
2018-08-08T19:46:12.485Z,63.40
2018-08-08T19:48:40.967Z,63.50
2018-08-08T19:51:09.474Z,63.50
2018-08-08T19:53:38.594Z,63.40
2018-08-08T19:56:07.069Z,63.30
2018-08-08T19:58:35.562Z,63.30
2018-08-08T20:01:04.047Z,63.40
2018-08-08T20:03:32.677Z,63.50
2018-08-08T20:06:01.176Z,63.50
2018-08-08T20:08:29.682Z,63.80
2018-08-08T20:10:58.952Z,63.60
2018-08-08T20:13:27.420Z,63.80
2018-08-08T20:15:57.300Z,64.30
2018-08-08T20:18:26.013Z,64.70
2018-08-08T20:20:55.418Z,64.70
2018-08-08T20:23:24.059Z,65.40
2018-08-08T20:25:52.778Z,64.70
2018-08-08T20:28:21.389Z,64.70
2018-08-08T20:30:50.785Z,64.70
2018-08-08T20:33:20.087Z,64.70
2018-08-08T20:35:48.948Z,65.10
2018-08-08T20:38:17.549Z,65.60
2018-08-08T20:40:46.011Z,65.60
2018-08-08T20:43:14.484Z,65.60
2018-08-08T20:45:43.367Z,65.40
2018-08-08T20:48:12.676Z,65.60
2018-08-08T20:50:41.170Z,65.70
2018-08-08T20:53:09.667Z,66.20
2018-08-08T20:55:38.183Z,66.00
2018-08-08T20:58:06.671Z,66.00
2018-08-08T21:00:35.176Z,65.70
2018-08-08T21:03:03.705Z,65.60
2018-08-08T21:05:32.291Z,66.10
2018-08-08T21:08:00.731Z,65.80
2018-08-08T21:10:29.249Z,66.00
2018-08-08T21:12:57.798Z,66.30
2018-08-08T21:15:26.284Z,66.70
2018-08-08T21:17:54.822Z,67.00
2018-08-08T21:20:23.845Z,66.70
2018-08-08T21:22:52.298Z,66.80
2018-08-08T21:25:20.808Z,67.60
2018-08-08T21:27:49.297Z,67.60
2018-08-08T21:30:17.845Z,67.60
2018-08-08T21:32:46.200Z,68.00
2018-08-08T21:35:14.875Z,68.00
2018-08-08T21:37:43.377Z,68.70
2018-08-08T21:40:11.885Z,68.70
2018-08-08T21:42:40.996Z,68.50
2018-08-08T21:45:09.425Z,69.20
2018-08-08T21:47:37.885Z,69.20
2018-08-08T21:50:07.115Z,69.70
2018-08-08T21:52:35.592Z,69.90
2018-08-08T21:55:15.321Z,69.90
2018-08-08T21:57:55.172Z,70.40
2018-08-08T22:00:35.041Z,70.40
2018-08-08T22:03:15.058Z,71.10
2018-08-08T22:05:54.906Z,70.90
2018-08-08T22:08:34.624Z,71.00
2018-08-08T22:11:18.879Z,71.40
2018-08-08T22:13:58.594Z,71.70
2018-08-08T22:16:44.033Z,71.90
2018-08-08T22:19:29.860Z,71.90
2018-08-08T22:21:58.293Z,72.20
2018-08-08T22:24:26.748Z,71.80
2018-08-08T22:26:55.191Z,70.90
2018-08-08T22:29:23.626Z,72.20
2018-08-08T22:31:52.121Z,72.30
2018-08-08T22:34:20.572Z,72.30
2018-08-08T22:38:17.180Z,72.30
2018-08-08T22:40:45.625Z,73.00
2018-08-08T22:43:14.020Z,72.70
2018-08-08T22:45:42.702Z,73.40
2018-08-08T22:48:11.099Z,74.40
2018-08-08T22:50:39.565Z,75.00
2018-08-08T22:53:08.024Z,74.70
2018-08-08T22:55:36.459Z,76.00
2018-08-08T23:00:33.143Z,75.10
2018-08-08T23:03:02.152Z,75.00
2018-08-08T23:05:30.569Z,75.70
2018-08-08T23:07:59.149Z,74.60
2018-08-08T23:10:27.564Z,74.80
2018-08-08T23:12:56.173Z,74.60
2018-08-08T23:15:25.116Z,75.10
2018-08-08T23:17:53.559Z,74.60
2018-08-08T23:20:22.108Z,74.70
2018-08-08T23:22:55.132Z,75.50
2018-08-08T23:25:24.112Z,75.10
2018-08-08T23:27:52.752Z,74.20
2018-08-08T23:30:21.308Z,74.30
2018-08-08T23:32:49.780Z,74.40
2018-08-08T23:35:18.249Z,74.30
2018-08-08T23:37:46.824Z,74.30
2018-08-08T23:40:15.308Z,75.00
2018-08-08T23:42:43.828Z,75.50
2018-08-08T23:45:12.396Z,76.00
2018-08-08T23:47:40.847Z,75.30
2018-08-08T23:50:09.782Z,75.70
2018-08-08T23:52:38.345Z,75.80
2018-08-08T23:55:07.564Z,76.40
2018-08-08T23:57:36.190Z,76.70
